sensor_id;sensor_type;location;lat;lon;timestamp;P1;durP1;ratioP1;P2;durP2;ratioP2
45970;SDS011;31681;48.982;8.394;2024-01-11T00:00:05;36.87;;;17.00;;
45970;SDS011;31681;48.982;8.394;2024-01-11T00:02:30;38.73;;;17.47;;
45970;SDS011;31681;48.982;8.394;2024-01-11T00:04:55;36.50;;;16.83;;
45970;SDS011;31681;48.982;8.394;2024-01-11T00:07:22;36.33;;;17.10;;
45970;SDS011;31681;48.982;8.394;2024-01-11T00:09:47;34.90;;;16.23;;
45970;SDS011;31681;48.982;8.394;2024-01-11T00:12:12;34.10;;;16.73;;
45970;SDS011;31681;48.982;8.394;2024-01-11T00:14:38;36.33;;;16.60;;
45970;SDS011;31681;48.982;8.394;2024-01-11T00:17:03;34.73;;;16.67;;
45970;SDS011;31681;48.982;8.394;2024-01-11T00:19:30;36.57;;;16.53;;
45970;SDS011;31681;48.982;8.394;2024-01-11T00:21:55;41.80;;;17.83;;
45970;SDS011;31681;48.982;8.394;2024-01-11T00:24:20;37.93;;;17.30;;
45970;SDS011;31681;48.982;8.394;2024-01-11T00:26:46;34.27;;;16.37;;
45970;SDS011;31681;48.982;8.394;2024-01-11T00:29:11;32.90;;;15.83;;
45970;SDS011;31681;48.982;8.394;2024-01-11T00:31:37;39.00;;;16.40;;
45970;SDS011;31681;48.982;8.394;2024-01-11T00:34:03;32.87;;;15.90;;
45970;SDS011;31681;48.982;8.394;2024-01-11T00:36:29;33.60;;;15.30;;
45970;SDS011;31681;48.982;8.394;2024-01-11T00:38:54;32.33;;;16.50;;
45970;SDS011;31681;48.982;8.394;2024-01-11T00:41:20;38.00;;;16.57;;
45970;SDS011;31681;48.982;8.394;2024-01-11T00:43:45;33.77;;;16.07;;
45970;SDS011;31681;48.982;8.394;2024-01-11T00:46:11;24.23;;;12.47;;
45970;SDS011;31681;48.982;8.394;2024-01-11T00:48:36;37.23;;;16.17;;
45970;SDS011;31681;48.982;8.394;2024-01-11T00:51:08;34.57;;;15.93;;
45970;SDS011;31681;48.982;8.394;2024-01-11T00:53:33;33.23;;;16.17;;
45970;SDS011;31681;48.982;8.394;2024-01-11T00:56:02;31.73;;;15.57;;
45970;SDS011;31681;48.982;8.394;2024-01-11T00:58:27;35.57;;;16.73;;
45970;SDS011;31681;48.982;8.394;2024-01-11T01:00:53;31.37;;;15.67;;
45970;SDS011;31681;48.982;8.394;2024-01-11T01:03:19;31.37;;;15.47;;
45970;SDS011;31681;48.982;8.394;2024-01-11T01:05:45;31.63;;;15.73;;
45970;SDS011;31681;48.982;8.394;2024-01-11T01:08:11;32.73;;;15.60;;
45970;SDS011;31681;48.982;8.394;2024-01-11T01:10:36;31.13;;;15.60;;
45970;SDS011;31681;48.982;8.394;2024-01-11T01:13:01;33.17;;;16.30;;
45970;SDS011;31681;48.982;8.394;2024-01-11T01:15:27;37.80;;;16.00;;
45970;SDS011;31681;48.982;8.394;2024-01-11T01:17:53;31.83;;;14.93;;
45970;SDS011;31681;48.982;8.394;2024-01-11T01:20:18;34.30;;;16.07;;
45970;SDS011;31681;48.982;8.394;2024-01-11T01:22:44;32.83;;;16.37;;
45970;SDS011;31681;48.982;8.394;2024-01-11T01:25:09;40.30;;;17.07;;
45970;SDS011;31681;48.982;8.394;2024-01-11T01:27:34;40.60;;;16.60;;
45970;SDS011;31681;48.982;8.394;2024-01-11T01:30:00;36.67;;;16.30;;
45970;SDS011;31681;48.982;8.394;2024-01-11T01:32:25;35.87;;;17.17;;
45970;SDS011;31681;48.982;8.394;2024-01-11T01:34:51;31.83;;;16.30;;
45970;SDS011;31681;48.982;8.394;2024-01-11T01:37:16;41.63;;;17.20;;
45970;SDS011;31681;48.982;8.394;2024-01-11T01:39:41;36.77;;;16.30;;
45970;SDS011;31681;48.982;8.394;2024-01-11T01:42:07;36.10;;;17.17;;
45970;SDS011;31681;48.982;8.394;2024-01-11T01:44:33;37.60;;;17.30;;
45970;SDS011;31681;48.982;8.394;2024-01-11T01:46:58;40.57;;;17.20;;
45970;SDS011;31681;48.982;8.394;2024-01-11T01:49:24;37.90;;;16.20;;
45970;SDS011;31681;48.982;8.394;2024-01-11T01:51:50;38.40;;;15.77;;
45970;SDS011;31681;48.982;8.394;2024-01-11T01:54:16;32.90;;;16.17;;
45970;SDS011;31681;48.982;8.394;2024-01-11T01:56:42;37.60;;;17.10;;
45970;SDS011;31681;48.982;8.394;2024-01-11T01:59:07;35.63;;;15.77;;
45970;SDS011;31681;48.982;8.394;2024-01-11T02:01:33;37.27;;;16.67;;
45970;SDS011;31681;48.982;8.394;2024-01-11T02:03:59;34.87;;;16.37;;
45970;SDS011;31681;48.982;8.394;2024-01-11T02:06:25;32.53;;;16.07;;
45970;SDS011;31681;48.982;8.394;2024-01-11T02:08:53;33.80;;;16.53;;
45970;SDS011;31681;48.982;8.394;2024-01-11T02:11:20;36.17;;;16.77;;
45970;SDS011;31681;48.982;8.394;2024-01-11T02:13:45;33.73;;;15.93;;
45970;SDS011;31681;48.982;8.394;2024-01-11T02:16:14;34.23;;;16.80;;
45970;SDS011;31681;48.982;8.394;2024-01-11T02:18:40;31.27;;;15.60;;
45970;SDS011;31681;48.982;8.394;2024-01-11T02:21:06;34.17;;;16.33;;
45970;SDS011;31681;48.982;8.394;2024-01-11T02:23:33;25.73;;;14.50;;
45970;SDS011;31681;48.982;8.394;2024-01-11T02:26:01;33.90;;;16.83;;
45970;SDS011;31681;48.982;8.394;2024-01-11T02:28:26;36.27;;;16.77;;
45970;SDS011;31681;48.982;8.394;2024-01-11T02:30:51;34.30;;;17.07;;
45970;SDS011;31681;48.982;8.394;2024-01-11T02:33:17;34.03;;;15.80;;
45970;SDS011;31681;48.982;8.394;2024-01-11T02:35:43;34.17;;;17.57;;
45970;SDS011;31681;48.982;8.394;2024-01-11T02:38:09;34.57;;;15.80;;
45970;SDS011;31681;48.982;8.394;2024-01-11T02:40:34;34.57;;;16.90;;
45970;SDS011;31681;48.982;8.394;2024-01-11T02:43:09;35.73;;;16.53;;
45970;SDS011;31681;48.982;8.394;2024-01-11T02:45:35;37.47;;;16.23;;
45970;SDS011;31681;48.982;8.394;2024-01-11T02:48:01;32.73;;;15.73;;
45970;SDS011;31681;48.982;8.394;2024-01-11T02:50:26;35.67;;;15.57;;
45970;SDS011;31681;48.982;8.394;2024-01-11T02:52:51;41.13;;;17.00;;
45970;SDS011;31681;48.982;8.394;2024-01-11T02:55:17;33.23;;;16.17;;
45970;SDS011;31681;48.982;8.394;2024-01-11T02:57:42;38.43;;;16.67;;
45970;SDS011;31681;48.982;8.394;2024-01-11T03:00:07;32.60;;;16.73;;
45970;SDS011;31681;48.982;8.394;2024-01-11T03:02:33;34.80;;;16.47;;
45970;SDS011;31681;48.982;8.394;2024-01-11T03:04:58;39.87;;;17.43;;
45970;SDS011;31681;48.982;8.394;2024-01-11T03:07:24;36.73;;;17.03;;
45970;SDS011;31681;48.982;8.394;2024-01-11T03:09:49;36.93;;;16.77;;
45970;SDS011;31681;48.982;8.394;2024-01-11T03:12:14;39.87;;;18.03;;
45970;SDS011;31681;48.982;8.394;2024-01-11T03:14:39;37.37;;;17.20;;
45970;SDS011;31681;48.982;8.394;2024-01-11T03:17:05;31.40;;;16.80;;
45970;SDS011;31681;48.982;8.394;2024-01-11T03:19:30;35.20;;;17.03;;
45970;SDS011;31681;48.982;8.394;2024-01-11T03:21:55;32.07;;;16.20;;
45970;SDS011;31681;48.982;8.394;2024-01-11T03:24:21;37.10;;;16.77;;
45970;SDS011;31681;48.982;8.394;2024-01-11T03:26:47;38.83;;;17.70;;
45970;SDS011;31681;48.982;8.394;2024-01-11T03:29:12;35.47;;;17.30;;
45970;SDS011;31681;48.982;8.394;2024-01-11T03:31:38;35.23;;;16.47;;
45970;SDS011;31681;48.982;8.394;2024-01-11T03:34:06;35.63;;;17.33;;
45970;SDS011;31681;48.982;8.394;2024-01-11T03:36:32;33.70;;;15.93;;
45970;SDS011;31681;48.982;8.394;2024-01-11T03:38:57;35.93;;;17.57;;
45970;SDS011;31681;48.982;8.394;2024-01-11T03:41:23;35.43;;;17.57;;
45970;SDS011;31681;48.982;8.394;2024-01-11T03:43:49;29.70;;;16.13;;
45970;SDS011;31681;48.982;8.394;2024-01-11T03:46:14;35.93;;;16.00;;
45970;SDS011;31681;48.982;8.394;2024-01-11T03:48:40;39.23;;;16.90;;
45970;SDS011;31681;48.982;8.394;2024-01-11T03:51:05;35.90;;;17.50;;
45970;SDS011;31681;48.982;8.394;2024-01-11T03:53:35;37.70;;;17.67;;
45970;SDS011;31681;48.982;8.394;2024-01-11T03:56:02;34.00;;;17.50;;
45970;SDS011;31681;48.982;8.394;2024-01-11T03:58:27;37.80;;;16.60;;
45970;SDS011;31681;48.982;8.394;2024-01-11T04:00:52;39.63;;;18.07;;
45970;SDS011;31681;48.982;8.394;2024-01-11T04:03:18;34.47;;;17.17;;
45970;SDS011;31681;48.982;8.394;2024-01-11T04:05:43;35.63;;;17.30;;
45970;SDS011;31681;48.982;8.394;2024-01-11T04:08:08;38.10;;;16.43;;
45970;SDS011;31681;48.982;8.394;2024-01-11T04:10:34;37.10;;;18.40;;
45970;SDS011;31681;48.982;8.394;2024-01-11T04:12:59;33.33;;;16.33;;
45970;SDS011;31681;48.982;8.394;2024-01-11T04:15:25;39.87;;;17.67;;
45970;SDS011;31681;48.982;8.394;2024-01-11T04:17:52;36.70;;;17.50;;
45970;SDS011;31681;48.982;8.394;2024-01-11T04:20:18;39.00;;;17.70;;
45970;SDS011;31681;48.982;8.394;2024-01-11T04:22:43;36.83;;;17.37;;
45970;SDS011;31681;48.982;8.394;2024-01-11T04:25:08;33.33;;;16.27;;
45970;SDS011;31681;48.982;8.394;2024-01-11T04:27:34;36.63;;;17.33;;
45970;SDS011;31681;48.982;8.394;2024-01-11T04:29:59;36.47;;;16.70;;
45970;SDS011;31681;48.982;8.394;2024-01-11T04:32:25;37.73;;;17.70;;
45970;SDS011;31681;48.982;8.394;2024-01-11T04:34:50;34.03;;;16.07;;
45970;SDS011;31681;48.982;8.394;2024-01-11T04:37:15;31.70;;;16.40;;
45970;SDS011;31681;48.982;8.394;2024-01-11T04:39:41;32.27;;;17.00;;
45970;SDS011;31681;48.982;8.394;2024-01-11T04:42:06;34.07;;;16.40;;
45970;SDS011;31681;48.982;8.394;2024-01-11T04:44:32;36.43;;;16.40;;
45970;SDS011;31681;48.982;8.394;2024-01-11T04:46:57;41.03;;;17.20;;
45970;SDS011;31681;48.982;8.394;2024-01-11T04:49:22;33.47;;;14.67;;
45970;SDS011;31681;48.982;8.394;2024-01-11T04:51:48;32.47;;;16.90;;
45970;SDS011;31681;48.982;8.394;2024-01-11T04:54:13;32.70;;;16.27;;
45970;SDS011;31681;48.982;8.394;2024-01-11T04:56:38;33.57;;;15.77;;
45970;SDS011;31681;48.982;8.394;2024-01-11T04:59:04;29.70;;;16.63;;
45970;SDS011;31681;48.982;8.394;2024-01-11T05:01:29;32.07;;;15.80;;
45970;SDS011;31681;48.982;8.394;2024-01-11T05:03:55;38.50;;;17.47;;
45970;SDS011;31681;48.982;8.394;2024-01-11T05:06:21;35.47;;;17.20;;
45970;SDS011;31681;48.982;8.394;2024-01-11T05:08:47;36.17;;;17.30;;
45970;SDS011;31681;48.982;8.394;2024-01-11T05:11:19;32.00;;;16.47;;
45970;SDS011;31681;48.982;8.394;2024-01-11T05:13:45;32.57;;;16.83;;
45970;SDS011;31681;48.982;8.394;2024-01-11T05:18:44;34.43;;;16.10;;
45970;SDS011;31681;48.982;8.394;2024-01-11T05:21:09;37.00;;;16.73;;
45970;SDS011;31681;48.982;8.394;2024-01-11T05:23:35;33.83;;;16.03;;
45970;SDS011;31681;48.982;8.394;2024-01-11T05:26:00;34.27;;;15.97;;
45970;SDS011;31681;48.982;8.394;2024-01-11T05:28:26;39.43;;;17.00;;
45970;SDS011;31681;48.982;8.394;2024-01-11T05:30:51;33.93;;;17.30;;
45970;SDS011;31681;48.982;8.394;2024-01-11T05:33:16;33.30;;;16.80;;
45970;SDS011;31681;48.982;8.394;2024-01-11T05:35:42;35.07;;;17.20;;
45970;SDS011;31681;48.982;8.394;2024-01-11T05:38:07;34.33;;;15.97;;
45970;SDS011;31681;48.982;8.394;2024-01-11T05:40:32;34.50;;;16.27;;
45970;SDS011;31681;48.982;8.394;2024-01-11T05:42:58;35.53;;;17.30;;
45970;SDS011;31681;48.982;8.394;2024-01-11T05:45:23;30.33;;;15.83;;
45970;SDS011;31681;48.982;8.394;2024-01-11T05:47:48;35.07;;;17.00;;
45970;SDS011;31681;48.982;8.394;2024-01-11T05:50:14;33.30;;;16.90;;
45970;SDS011;31681;48.982;8.394;2024-01-11T05:52:39;40.23;;;18.43;;
45970;SDS011;31681;48.982;8.394;2024-01-11T05:55:05;38.37;;;16.77;;
45970;SDS011;31681;48.982;8.394;2024-01-11T05:57:30;33.43;;;17.80;;
45970;SDS011;31681;48.982;8.394;2024-01-11T05:59:56;35.27;;;16.63;;
45970;SDS011;31681;48.982;8.394;2024-01-11T06:02:21;43.53;;;18.23;;
45970;SDS011;31681;48.982;8.394;2024-01-11T06:04:47;31.80;;;15.83;;
45970;SDS011;31681;48.982;8.394;2024-01-11T06:07:14;35.23;;;16.90;;
45970;SDS011;31681;48.982;8.394;2024-01-11T06:09:39;35.43;;;16.83;;
45970;SDS011;31681;48.982;8.394;2024-01-11T06:12:05;33.90;;;16.43;;
45970;SDS011;31681;48.982;8.394;2024-01-11T06:14:30;34.83;;;16.10;;
45970;SDS011;31681;48.982;8.394;2024-01-11T06:16:56;32.27;;;16.03;;
45970;SDS011;31681;48.982;8.394;2024-01-11T06:19:22;32.73;;;16.67;;
45970;SDS011;31681;48.982;8.394;2024-01-11T06:21:47;30.70;;;16.37;;
45970;SDS011;31681;48.982;8.394;2024-01-11T06:24:12;36.57;;;17.70;;
45970;SDS011;31681;48.982;8.394;2024-01-11T06:26:38;41.37;;;17.87;;
45970;SDS011;31681;48.982;8.394;2024-01-11T06:29:03;35.17;;;16.57;;
45970;SDS011;31681;48.982;8.394;2024-01-11T06:31:29;36.30;;;17.50;;
45970;SDS011;31681;48.982;8.394;2024-01-11T06:33:54;30.10;;;16.67;;
45970;SDS011;31681;48.982;8.394;2024-01-11T06:36:19;40.70;;;17.53;;
45970;SDS011;31681;48.982;8.394;2024-01-11T06:38:45;37.27;;;16.57;;
45970;SDS011;31681;48.982;8.394;2024-01-11T06:41:10;39.33;;;18.73;;
45970;SDS011;31681;48.982;8.394;2024-01-11T06:43:35;34.67;;;16.70;;
45970;SDS011;31681;48.982;8.394;2024-01-11T06:46:04;33.97;;;17.43;;
45970;SDS011;31681;48.982;8.394;2024-01-11T06:48:30;34.30;;;16.77;;
45970;SDS011;31681;48.982;8.394;2024-01-11T06:50:56;35.90;;;17.03;;
45970;SDS011;31681;48.982;8.394;2024-01-11T06:53:21;32.93;;;15.87;;
45970;SDS011;31681;48.982;8.394;2024-01-11T06:55:46;35.10;;;17.83;;
45970;SDS011;31681;48.982;8.394;2024-01-11T06:58:13;33.60;;;17.07;;
45970;SDS011;31681;48.982;8.394;2024-01-11T07:00:38;38.37;;;16.30;;
45970;SDS011;31681;48.982;8.394;2024-01-11T07:03:08;36.37;;;16.53;;
45970;SDS011;31681;48.982;8.394;2024-01-11T07:05:34;36.87;;;17.43;;
45970;SDS011;31681;48.982;8.394;2024-01-11T07:08:00;31.80;;;17.00;;
45970;SDS011;31681;48.982;8.394;2024-01-11T07:10:25;35.20;;;16.70;;
45970;SDS011;31681;48.982;8.394;2024-01-11T07:12:50;27.67;;;13.67;;
45970;SDS011;31681;48.982;8.394;2024-01-11T07:15:16;34.17;;;16.10;;
45970;SDS011;31681;48.982;8.394;2024-01-11T07:17:42;36.97;;;15.47;;
45970;SDS011;31681;48.982;8.394;2024-01-11T07:20:07;34.20;;;16.23;;
45970;SDS011;31681;48.982;8.394;2024-01-11T07:22:33;41.40;;;16.60;;
45970;SDS011;31681;48.982;8.394;2024-01-11T07:24:58;35.40;;;16.63;;
45970;SDS011;31681;48.982;8.394;2024-01-11T07:27:24;32.93;;;16.77;;
45970;SDS011;31681;48.982;8.394;2024-01-11T07:29:50;35.47;;;15.83;;
45970;SDS011;31681;48.982;8.394;2024-01-11T07:32:16;36.23;;;16.90;;
45970;SDS011;31681;48.982;8.394;2024-01-11T07:34:41;33.43;;;16.43;;
45970;SDS011;31681;48.982;8.394;2024-01-11T07:37:06;36.63;;;15.90;;
45970;SDS011;31681;48.982;8.394;2024-01-11T07:39:32;33.30;;;17.10;;
45970;SDS011;31681;48.982;8.394;2024-01-11T07:41:58;33.03;;;16.10;;
45970;SDS011;31681;48.982;8.394;2024-01-11T07:44:24;30.73;;;14.00;;
45970;SDS011;31681;48.982;8.394;2024-01-11T07:46:50;31.03;;;15.70;;
45970;SDS011;31681;48.982;8.394;2024-01-11T07:49:15;32.87;;;16.13;;
45970;SDS011;31681;48.982;8.394;2024-01-11T07:51:40;30.33;;;15.50;;
45970;SDS011;31681;48.982;8.394;2024-01-11T07:54:05;32.50;;;14.80;;
45970;SDS011;31681;48.982;8.394;2024-01-11T07:56:31;34.33;;;15.03;;
45970;SDS011;31681;48.982;8.394;2024-01-11T07:58:56;31.27;;;15.47;;
45970;SDS011;31681;48.982;8.394;2024-01-11T08:01:22;33.67;;;14.93;;
45970;SDS011;31681;48.982;8.394;2024-01-11T08:03:47;31.03;;;14.97;;
45970;SDS011;31681;48.982;8.394;2024-01-11T08:06:13;33.73;;;14.80;;
45970;SDS011;31681;48.982;8.394;2024-01-11T08:08:38;33.67;;;15.40;;
45970;SDS011;31681;48.982;8.394;2024-01-11T08:11:04;29.03;;;13.80;;
45970;SDS011;31681;48.982;8.394;2024-01-11T08:13:29;32.10;;;16.13;;
45970;SDS011;31681;48.982;8.394;2024-01-11T08:15:56;36.10;;;16.43;;
45970;SDS011;31681;48.982;8.394;2024-01-11T08:18:22;28.17;;;12.83;;
45970;SDS011;31681;48.982;8.394;2024-01-11T08:20:48;28.83;;;14.80;;
45970;SDS011;31681;48.982;8.394;2024-01-11T08:23:14;36.07;;;16.07;;
45970;SDS011;31681;48.982;8.394;2024-01-11T08:25:39;31.00;;;15.60;;
45970;SDS011;31681;48.982;8.394;2024-01-11T08:28:05;33.27;;;15.80;;
45970;SDS011;31681;48.982;8.394;2024-01-11T08:30:30;32.30;;;16.23;;
45970;SDS011;31681;48.982;8.394;2024-01-11T08:32:55;36.23;;;15.90;;
45970;SDS011;31681;48.982;8.394;2024-01-11T08:35:21;36.77;;;15.97;;
45970;SDS011;31681;48.982;8.394;2024-01-11T08:37:46;32.23;;;15.87;;
45970;SDS011;31681;48.982;8.394;2024-01-11T08:40:11;33.90;;;16.07;;
45970;SDS011;31681;48.982;8.394;2024-01-11T08:42:37;33.87;;;16.77;;
45970;SDS011;31681;48.982;8.394;2024-01-11T08:45:04;32.67;;;16.03;;
45970;SDS011;31681;48.982;8.394;2024-01-11T08:47:32;37.77;;;16.77;;
45970;SDS011;31681;48.982;8.394;2024-01-11T08:49:57;36.23;;;17.83;;
45970;SDS011;31681;48.982;8.394;2024-01-11T08:52:22;35.57;;;17.57;;
45970;SDS011;31681;48.982;8.394;2024-01-11T08:54:48;35.23;;;17.17;;
45970;SDS011;31681;48.982;8.394;2024-01-11T08:57:14;35.33;;;16.20;;
45970;SDS011;31681;48.982;8.394;2024-01-11T08:59:40;34.37;;;16.43;;
45970;SDS011;31681;48.982;8.394;2024-01-11T09:02:06;37.80;;;16.90;;
45970;SDS011;31681;48.982;8.394;2024-01-11T09:04:31;40.03;;;18.50;;
45970;SDS011;31681;48.982;8.394;2024-01-11T09:06:57;36.07;;;16.70;;
45970;SDS011;31681;48.982;8.394;2024-01-11T09:09:22;36.20;;;17.17;;
45970;SDS011;31681;48.982;8.394;2024-01-11T09:11:47;33.63;;;17.30;;
45970;SDS011;31681;48.982;8.394;2024-01-11T09:14:14;34.40;;;16.57;;
45970;SDS011;31681;48.982;8.394;2024-01-11T09:16:40;34.13;;;17.00;;
45970;SDS011;31681;48.982;8.394;2024-01-11T09:19:05;32.23;;;16.80;;
45970;SDS011;31681;48.982;8.394;2024-01-11T09:21:31;37.73;;;18.43;;
45970;SDS011;31681;48.982;8.394;2024-01-11T09:23:56;42.00;;;17.80;;
45970;SDS011;31681;48.982;8.394;2024-01-11T09:26:21;35.47;;;18.57;;
45970;SDS011;31681;48.982;8.394;2024-01-11T09:28:48;37.57;;;18.20;;
45970;SDS011;31681;48.982;8.394;2024-01-11T09:31:13;38.43;;;18.37;;
45970;SDS011;31681;48.982;8.394;2024-01-11T09:33:38;40.93;;;19.20;;
45970;SDS011;31681;48.982;8.394;2024-01-11T09:36:04;39.30;;;17.47;;
45970;SDS011;31681;48.982;8.394;2024-01-11T09:38:29;41.07;;;18.53;;
45970;SDS011;31681;48.982;8.394;2024-01-11T09:41:13;35.80;;;17.80;;
45970;SDS011;31681;48.982;8.394;2024-01-11T09:43:39;40.97;;;19.27;;
45970;SDS011;31681;48.982;8.394;2024-01-11T09:46:06;33.63;;;16.23;;
45970;SDS011;31681;48.982;8.394;2024-01-11T09:48:35;34.90;;;18.40;;
45970;SDS011;31681;48.982;8.394;2024-01-11T09:51:04;39.00;;;18.70;;
45970;SDS011;31681;48.982;8.394;2024-01-11T09:53:32;38.83;;;19.23;;
45970;SDS011;31681;48.982;8.394;2024-01-11T09:55:58;38.43;;;17.87;;
45970;SDS011;31681;48.982;8.394;2024-01-11T09:58:23;40.60;;;19.93;;
45970;SDS011;31681;48.982;8.394;2024-01-11T10:00:49;33.80;;;16.83;;
45970;SDS011;31681;48.982;8.394;2024-01-11T10:03:16;35.67;;;18.67;;
45970;SDS011;31681;48.982;8.394;2024-01-11T10:05:41;39.80;;;18.00;;
45970;SDS011;31681;48.982;8.394;2024-01-11T10:08:07;36.00;;;19.00;;
45970;SDS011;31681;48.982;8.394;2024-01-11T10:10:33;33.40;;;16.87;;
45970;SDS011;31681;48.982;8.394;2024-01-11T10:12:58;34.27;;;17.00;;
45970;SDS011;31681;48.982;8.394;2024-01-11T10:15:24;41.07;;;19.03;;
45970;SDS011;31681;48.982;8.394;2024-01-11T10:17:49;39.93;;;19.60;;
45970;SDS011;31681;48.982;8.394;2024-01-11T10:20:15;38.93;;;18.80;;
45970;SDS011;31681;48.982;8.394;2024-01-11T10:22:40;34.80;;;19.27;;
45970;SDS011;31681;48.982;8.394;2024-01-11T10:25:07;45.13;;;20.23;;
45970;SDS011;31681;48.982;8.394;2024-01-11T10:27:33;43.83;;;20.33;;
45970;SDS011;31681;48.982;8.394;2024-01-11T10:29:59;42.37;;;20.23;;
45970;SDS011;31681;48.982;8.394;2024-01-11T10:32:27;39.87;;;19.97;;
45970;SDS011;31681;48.982;8.394;2024-01-11T10:34:53;40.87;;;19.80;;
45970;SDS011;31681;48.982;8.394;2024-01-11T10:37:18;55.90;;;24.93;;
45970;SDS011;31681;48.982;8.394;2024-01-11T10:39:44;42.63;;;21.33;;
45970;SDS011;31681;48.982;8.394;2024-01-11T10:42:10;44.30;;;21.13;;
45970;SDS011;31681;48.982;8.394;2024-01-11T10:44:36;41.07;;;22.33;;
45970;SDS011;31681;48.982;8.394;2024-01-11T10:47:03;43.53;;;20.17;;
45970;SDS011;31681;48.982;8.394;2024-01-11T10:49:32;46.70;;;20.63;;
45970;SDS011;31681;48.982;8.394;2024-01-11T10:51:59;41.67;;;20.87;;
45970;SDS011;31681;48.982;8.394;2024-01-11T10:54:24;42.00;;;20.67;;
45970;SDS011;31681;48.982;8.394;2024-01-11T10:56:51;29.43;;;14.67;;
45970;SDS011;31681;48.982;8.394;2024-01-11T10:59:17;39.17;;;18.07;;
45970;SDS011;31681;48.982;8.394;2024-01-11T11:01:46;39.63;;;18.40;;
45970;SDS011;31681;48.982;8.394;2024-01-11T11:04:11;45.23;;;21.03;;
45970;SDS011;31681;48.982;8.394;2024-01-11T11:06:38;39.93;;;20.83;;
45970;SDS011;31681;48.982;8.394;2024-01-11T11:09:04;34.97;;;15.97;;
45970;SDS011;31681;48.982;8.394;2024-01-11T11:11:31;36.70;;;20.40;;
45970;SDS011;31681;48.982;8.394;2024-01-11T11:14:00;43.20;;;19.97;;
45970;SDS011;31681;48.982;8.394;2024-01-11T11:16:26;40.33;;;21.20;;
45970;SDS011;31681;48.982;8.394;2024-01-11T11:18:54;42.47;;;19.93;;
45970;SDS011;31681;48.982;8.394;2024-01-11T11:21:20;43.37;;;21.03;;
45970;SDS011;31681;48.982;8.394;2024-01-11T11:23:45;43.77;;;20.80;;
45970;SDS011;31681;48.982;8.394;2024-01-11T11:26:14;40.73;;;20.30;;
45970;SDS011;31681;48.982;8.394;2024-01-11T11:28:41;41.87;;;21.37;;
45970;SDS011;31681;48.982;8.394;2024-01-11T11:31:07;42.90;;;21.33;;
45970;SDS011;31681;48.982;8.394;2024-01-11T11:33:32;38.63;;;19.00;;
45970;SDS011;31681;48.982;8.394;2024-01-11T11:35:58;41.13;;;19.70;;
45970;SDS011;31681;48.982;8.394;2024-01-11T11:38:27;43.73;;;21.17;;
45970;SDS011;31681;48.982;8.394;2024-01-11T11:40:54;40.13;;;21.90;;
45970;SDS011;31681;48.982;8.394;2024-01-11T11:43:20;44.80;;;21.00;;
45970;SDS011;31681;48.982;8.394;2024-01-11T11:45:46;36.03;;;20.37;;
45970;SDS011;31681;48.982;8.394;2024-01-11T11:51:09;38.07;;;18.90;;
45970;SDS011;31681;48.982;8.394;2024-01-11T11:53:35;37.77;;;20.13;;
45970;SDS011;31681;48.982;8.394;2024-01-11T11:56:03;43.10;;;21.90;;
45970;SDS011;31681;48.982;8.394;2024-01-11T11:58:29;39.10;;;18.90;;
45970;SDS011;31681;48.982;8.394;2024-01-11T12:00:55;42.07;;;18.53;;
45970;SDS011;31681;48.982;8.394;2024-01-11T12:03:35;46.57;;;20.83;;
45970;SDS011;31681;48.982;8.394;2024-01-11T12:06:04;43.97;;;19.97;;
45970;SDS011;31681;48.982;8.394;2024-01-11T12:08:33;43.47;;;19.97;;
45970;SDS011;31681;48.982;8.394;2024-01-11T12:10:58;40.57;;;20.70;;
45970;SDS011;31681;48.982;8.394;2024-01-11T12:13:24;38.63;;;20.47;;
45970;SDS011;31681;48.982;8.394;2024-01-11T12:15:50;39.17;;;20.73;;
45970;SDS011;31681;48.982;8.394;2024-01-11T12:18:15;36.90;;;21.07;;
45970;SDS011;31681;48.982;8.394;2024-01-11T12:20:40;45.43;;;20.77;;
45970;SDS011;31681;48.982;8.394;2024-01-11T12:23:06;45.00;;;20.67;;
45970;SDS011;31681;48.982;8.394;2024-01-11T12:25:31;41.10;;;20.53;;
45970;SDS011;31681;48.982;8.394;2024-01-11T12:27:57;37.67;;;18.87;;
45970;SDS011;31681;48.982;8.394;2024-01-11T12:30:23;38.10;;;20.47;;
45970;SDS011;31681;48.982;8.394;2024-01-11T12:32:49;36.00;;;20.63;;
45970;SDS011;31681;48.982;8.394;2024-01-11T12:35:14;43.17;;;21.80;;
45970;SDS011;31681;48.982;8.394;2024-01-11T12:37:40;48.57;;;21.90;;
45970;SDS011;31681;48.982;8.394;2024-01-11T12:40:05;36.43;;;19.43;;
45970;SDS011;31681;48.982;8.394;2024-01-11T12:42:34;39.27;;;20.47;;
45970;SDS011;31681;48.982;8.394;2024-01-11T12:44:59;41.40;;;21.37;;
45970;SDS011;31681;48.982;8.394;2024-01-11T12:47:25;40.77;;;21.07;;
45970;SDS011;31681;48.982;8.394;2024-01-11T12:49:50;41.73;;;20.90;;
45970;SDS011;31681;48.982;8.394;2024-01-11T12:52:20;37.17;;;19.47;;
45970;SDS011;31681;48.982;8.394;2024-01-11T12:54:45;41.10;;;20.87;;
45970;SDS011;31681;48.982;8.394;2024-01-11T12:57:11;38.23;;;19.13;;
45970;SDS011;31681;48.982;8.394;2024-01-11T12:59:37;36.73;;;20.40;;
45970;SDS011;31681;48.982;8.394;2024-01-11T13:02:04;39.43;;;19.80;;
45970;SDS011;31681;48.982;8.394;2024-01-11T13:04:30;39.33;;;19.13;;
45970;SDS011;31681;48.982;8.394;2024-01-11T13:06:55;40.10;;;20.67;;
45970;SDS011;31681;48.982;8.394;2024-01-11T13:09:21;37.70;;;20.00;;
45970;SDS011;31681;48.982;8.394;2024-01-11T13:11:46;38.23;;;19.37;;
45970;SDS011;31681;48.982;8.394;2024-01-11T13:14:11;43.77;;;20.70;;
45970;SDS011;31681;48.982;8.394;2024-01-11T13:16:44;39.93;;;19.70;;
45970;SDS011;31681;48.982;8.394;2024-01-11T13:19:10;37.63;;;19.17;;
45970;SDS011;31681;48.982;8.394;2024-01-11T13:21:36;34.90;;;19.53;;
45970;SDS011;31681;48.982;8.394;2024-01-11T13:24:02;37.63;;;19.30;;
45970;SDS011;31681;48.982;8.394;2024-01-11T13:26:27;39.93;;;20.27;;
45970;SDS011;31681;48.982;8.394;2024-01-11T13:28:52;46.67;;;22.70;;
45970;SDS011;31681;48.982;8.394;2024-01-11T13:31:18;39.67;;;18.80;;
45970;SDS011;31681;48.982;8.394;2024-01-11T13:33:43;38.70;;;19.87;;
45970;SDS011;31681;48.982;8.394;2024-01-11T13:36:08;38.27;;;18.93;;
45970;SDS011;31681;48.982;8.394;2024-01-11T13:38:34;38.47;;;19.80;;
45970;SDS011;31681;48.982;8.394;2024-01-11T13:41:00;37.53;;;18.97;;
45970;SDS011;31681;48.982;8.394;2024-01-11T13:43:25;39.40;;;19.57;;
45970;SDS011;31681;48.982;8.394;2024-01-11T13:45:50;33.90;;;19.00;;
45970;SDS011;31681;48.982;8.394;2024-01-11T13:48:16;38.67;;;19.30;;
45970;SDS011;31681;48.982;8.394;2024-01-11T13:50:41;35.67;;;19.53;;
45970;SDS011;31681;48.982;8.394;2024-01-11T13:53:07;36.70;;;18.60;;
45970;SDS011;31681;48.982;8.394;2024-01-11T13:55:32;39.23;;;19.03;;
45970;SDS011;31681;48.982;8.394;2024-01-11T13:58:03;40.07;;;19.33;;
45970;SDS011;31681;48.982;8.394;2024-01-11T14:00:28;42.10;;;20.03;;
45970;SDS011;31681;48.982;8.394;2024-01-11T14:02:54;41.47;;;20.67;;
45970;SDS011;31681;48.982;8.394;2024-01-11T14:05:19;41.87;;;21.43;;
45970;SDS011;31681;48.982;8.394;2024-01-11T14:07:45;40.63;;;19.33;;
45970;SDS011;31681;48.982;8.394;2024-01-11T14:10:10;36.63;;;19.33;;
45970;SDS011;31681;48.982;8.394;2024-01-11T14:12:39;35.30;;;18.87;;
45970;SDS011;31681;48.982;8.394;2024-01-11T14:15:05;39.37;;;18.53;;
45970;SDS011;31681;48.982;8.394;2024-01-11T14:17:32;34.97;;;19.10;;